sensor_id;sensor_type;location;lat;lon;timestamp;pressure;altitude;pressure_sealevel;temperature;humidity
73600;BME280;61877;48.246;9.220;2023-03-01T00:00:45;94625.16;;;-4.70;87.18
73600;BME280;61877;48.246;9.220;2023-03-01T00:03:12;94630.59;;;-4.60;87.23
73600;BME280;61877;48.246;9.220;2023-03-01T00:05:43;94628.66;;;-4.53;86.92
73600;BME280;61877;48.246;9.220;2023-03-01T00:08:09;94622.09;;;-4.39;86.83
73600;BME280;61877;48.246;9.220;2023-03-01T00:10:34;94621.81;;;-4.26;86.76
73600;BME280;61877;48.246;9.220;2023-03-01T00:12:59;94616.22;;;-4.18;86.70
73600;BME280;61877;48.246;9.220;2023-03-01T00:15:25;94611.72;;;-4.06;86.79
73600;BME280;61877;48.246;9.220;2023-03-01T00:17:50;94609.22;;;-4.01;85.60
73600;BME280;61877;48.246;9.220;2023-03-01T00:20:17;94617.00;;;-3.89;85.77
73600;BME280;61877;48.246;9.220;2023-03-01T00:22:42;94612.44;;;-3.82;85.47
73600;BME280;61877;48.246;9.220;2023-03-01T00:25:08;94606.47;;;-3.77;nan
73600;BME280;61877;48.246;9.220;2023-03-01T00:27:34;94607.94;;;-3.70;85.45
73600;BME280;61877;48.246;9.220;2023-03-01T00:29:59;94603.53;;;-3.64;85.53
73600;BME280;61877;48.246;9.220;2023-03-01T00:32:24;94600.06;;;-3.70;85.44
73600;BME280;61877;48.246;9.220;2023-03-01T00:34:50;94596.41;;;-3.69;85.38
73600;BME280;61877;48.246;9.220;2023-03-01T00:37:16;94600.44;;;-3.61;86.04
73600;BME280;61877;48.246;9.220;2023-03-01T00:39:42;94591.31;;;-3.59;84.79
73600;BME280;61877;48.246;9.220;2023-03-01T00:42:07;94592.75;;;-3.51;85.21
73600;BME280;61877;48.246;9.220;2023-03-01T00:44:33;94587.41;;;-3.56;85.59
73600;BME280;61877;48.246;9.220;2023-03-01T00:46:58;94587.41;;;-3.56;85.03
73600;BME280;61877;48.246;9.220;2023-03-01T00:49:24;94581.25;;;-3.50;85.13
73600;BME280;61877;48.246;9.220;2023-03-01T00:51:49;94585.44;;;-3.49;85.23
73600;BME280;61877;48.246;9.220;2023-03-01T00:54:16;94584.50;;;-3.43;85.19
73600;BME280;61877;48.246;9.220;2023-03-01T00:56:41;94580.34;;;-3.39;84.97
73600;BME280;61877;48.246;9.220;2023-03-01T00:59:06;94575.91;;;-3.39;85.04
73600;BME280;61877;48.246;9.220;2023-03-01T01:01:32;94577.81;;;-3.34;85.27
73600;BME280;61877;48.246;9.220;2023-03-01T01:03:59;94581.00;;;-3.32;85.10
73600;BME280;61877;48.246;9.220;2023-03-01T01:06:26;94569.22;;;-3.30;85.34
73600;BME280;61877;48.246;9.220;2023-03-01T01:08:53;94562.78;;;-3.22;85.10
73600;BME280;61877;48.246;9.220;2023-03-01T01:11:21;94563.88;;;-3.18;84.86
73600;BME280;61877;48.246;9.220;2023-03-01T01:13:47;94554.41;;;-3.19;84.95
73600;BME280;61877;48.246;9.220;2023-03-01T01:16:13;94550.81;;;-3.13;84.88
73600;BME280;61877;48.246;9.220;2023-03-01T01:18:39;94548.19;;;-3.13;84.74
73600;BME280;61877;48.246;9.220;2023-03-01T01:21:06;94544.56;;;-3.12;85.19
73600;BME280;61877;48.246;9.220;2023-03-01T01:23:32;94549.06;;;-3.08;84.87
73600;BME280;61877;48.246;9.220;2023-03-01T01:25:57;94547.31;;;-3.02;83.99
73600;BME280;61877;48.246;9.220;2023-03-01T01:28:29;94541.75;;;-3.06;84.30
73600;BME280;61877;48.246;9.220;2023-03-01T01:30:54;94534.69;;;-3.05;84.35
73600;BME280;61877;48.246;9.220;2023-03-01T01:33:19;94534.44;;;-3.04;84.34
73600;BME280;61877;48.246;9.220;2023-03-01T01:35:45;94534.19;;;-3.02;84.04
73600;BME280;61877;48.246;9.220;2023-03-01T01:38:10;94537.84;;;-3.03;84.52
73600;BME280;61877;48.246;9.220;2023-03-01T01:40:43;94525.28;;;-3.01;84.43
73600;BME280;61877;48.246;9.220;2023-03-01T01:43:14;94522.16;;;-2.98;84.89
73600;BME280;61877;48.246;9.220;2023-03-01T01:45:43;94521.97;;;-2.92;84.82
73600;BME280;61877;48.246;9.220;2023-03-01T01:48:13;94520.47;;;-2.88;84.38
73600;BME280;61877;48.246;9.220;2023-03-01T01:50:40;94520.03;;;-2.80;84.22
73600;BME280;61877;48.246;9.220;2023-03-01T01:53:09;94517.72;;;-2.76;84.85
73600;BME280;61877;48.246;9.220;2023-03-01T01:55:37;94519.34;;;-2.70;84.77
73600;BME280;61877;48.246;9.220;2023-03-01T01:58:08;94508.59;;;-2.69;84.80
73600;BME280;61877;48.246;9.220;2023-03-01T02:00:37;94517.59;;;-2.65;84.61
73600;BME280;61877;48.246;9.220;2023-03-01T02:03:07;94514.47;;;-2.62;84.68
73600;BME280;61877;48.246;9.220;2023-03-01T02:05:38;94511.84;;;-2.62;84.50
73600;BME280;61877;48.246;9.220;2023-03-01T02:08:08;94517.97;;;-2.56;84.48
73600;BME280;61877;48.246;9.220;2023-03-01T02:10:35;94507.75;;;-2.52;83.78
73600;BME280;61877;48.246;9.220;2023-03-01T02:13:03;94514.09;;;-2.48;83.81
73600;BME280;61877;48.246;9.220;2023-03-01T02:15:31;94506.81;;;-2.41;83.77
73600;BME280;61877;48.246;9.220;2023-03-01T02:17:57;94504.56;;;-2.33;82.65
73600;BME280;61877;48.246;9.220;2023-03-01T02:20:28;94509.34;;;-2.25;82.23
73600;BME280;61877;48.246;9.220;2023-03-01T02:22:58;94501.78;;;-2.21;82.00
73600;BME280;61877;48.246;9.220;2023-03-01T02:25:30;94496.56;;;-2.16;82.31
73600;BME280;61877;48.246;9.220;2023-03-01T02:28:05;94494.59;;;-2.04;81.26
73600;BME280;61877;48.246;9.220;2023-03-01T02:30:34;94490.91;;;-2.03;81.37
73600;BME280;61877;48.246;9.220;2023-03-01T02:33:03;94495.34;;;-2.04;81.37
73600;BME280;61877;48.246;9.220;2023-03-01T02:35:29;94486.78;;;-1.94;81.30
73600;BME280;61877;48.246;9.220;2023-03-01T02:37:55;94487.81;;;-1.95;81.05
73600;BME280;61877;48.246;9.220;2023-03-01T02:40:21;94486.53;;;-1.93;80.92
73600;BME280;61877;48.246;9.220;2023-03-01T02:42:50;94489.16;;;-1.93;80.87
73600;BME280;61877;48.246;9.220;2023-03-01T02:45:17;94484.47;;;-1.91;80.94
73600;BME280;61877;48.246;9.220;2023-03-01T02:47:44;94479.25;;;-1.81;80.06
73600;BME280;61877;48.246;9.220;2023-03-01T02:50:18;94472.41;;;-1.82;80.48
73600;BME280;61877;48.246;9.220;2023-03-01T02:52:53;94478.78;;;-1.78;80.43
73600;BME280;61877;48.246;9.220;2023-03-01T02:55:21;94478.78;;;-1.78;80.27
73600;BME280;61877;48.246;9.220;2023-03-01T02:57:48;94473.50;;;-1.78;80.27
73600;BME280;61877;48.246;9.220;2023-03-01T03:00:15;94474.00;;;-1.81;80.68
73600;BME280;61877;48.246;9.220;2023-03-01T03:02:41;94474.56;;;-1.74;80.75
73600;BME280;61877;48.246;9.220;2023-03-01T03:05:11;94463.56;;;-1.71;80.46
73600;BME280;61877;48.246;9.220;2023-03-01T03:07:38;94473.09;;;-1.65;80.26
73600;BME280;61877;48.246;9.220;2023-03-01T03:10:06;94462.53;;;-1.70;80.25
73600;BME280;61877;48.246;9.220;2023-03-01T03:12:32;94455.41;;;-1.74;80.94
73600;BME280;61877;48.246;9.220;2023-03-01T03:14:58;94459.34;;;-1.72;80.69
73600;BME280;61877;48.246;9.220;2023-03-01T03:17:24;94453.53;;;-1.74;80.84
73600;BME280;61877;48.246;9.220;2023-03-01T03:19:49;94446.19;;;-1.72;80.54
73600;BME280;61877;48.246;9.220;2023-03-01T03:22:16;94446.19;;;-1.72;81.42
73600;BME280;61877;48.246;9.220;2023-03-01T03:24:41;94444.63;;;-1.73;81.50
73600;BME280;61877;48.246;9.220;2023-03-01T03:27:07;94450.41;;;-1.71;81.02
73600;BME280;61877;48.246;9.220;2023-03-01T03:29:32;94447.25;;;-1.73;81.19
73600;BME280;61877;48.246;9.220;2023-03-01T03:31:58;94448.81;;;-1.72;81.29
73600;BME280;61877;48.246;9.220;2023-03-01T03:34:23;94448.31;;;-1.69;81.00
73600;BME280;61877;48.246;9.220;2023-03-01T03:36:53;94448.91;;;-1.62;80.54
73600;BME280;61877;48.246;9.220;2023-03-01T03:39:20;94454.41;;;-1.63;80.53
73600;BME280;61877;48.246;9.220;2023-03-01T03:41:45;94443.63;;;-1.62;80.81
73600;BME280;61877;48.246;9.220;2023-03-01T03:44:10;94445.47;;;-1.62;81.23
73600;BME280;61877;48.246;9.220;2023-03-01T03:46:36;94435.19;;;-1.64;81.38
73600;BME280;61877;48.246;9.220;2023-03-01T03:49:01;94431.06;;;-1.55;81.21
73600;BME280;61877;48.246;9.220;2023-03-01T03:51:26;94427.41;;;-1.49;80.78
73600;BME280;61877;48.246;9.220;2023-03-01T03:53:52;94426.41;;;-1.38;80.45
73600;BME280;61877;48.246;9.220;2023-03-01T03:56:18;94428.03;;;-1.32;79.96
73600;BME280;61877;48.246;9.220;2023-03-01T03:58:44;94428.03;;;-1.32;80.54
73600;BME280;61877;48.246;9.220;2023-03-01T04:01:09;94424.09;;;-1.29;79.67
73600;BME280;61877;48.246;9.220;2023-03-01T04:03:34;94423.31;;;-1.29;80.41
73600;BME280;61877;48.246;9.220;2023-03-01T04:06:00;94424.38;;;-1.25;79.68
73600;BME280;61877;48.246;9.220;2023-03-01T04:08:27;94426.50;;;-1.22;79.30
73600;BME280;61877;48.246;9.220;2023-03-01T04:10:57;94420.19;;;-1.21;79.71
73600;BME280;61877;48.246;9.220;2023-03-01T04:13:24;94424.41;;;-1.20;79.68
73600;BME280;61877;48.246;9.220;2023-03-01T04:15:50;94424.41;;;-1.20;79.42
73600;BME280;61877;48.246;9.220;2023-03-01T04:18:18;94434.66;;;-1.19;79.22
73600;BME280;61877;48.246;9.220;2023-03-01T04:20:44;94424.97;;;-1.13;79.35
73600;BME280;61877;48.246;9.220;2023-03-01T04:23:12;94416.53;;;-1.15;79.04
73600;BME280;61877;48.246;9.220;2023-03-01T04:25:38;94421.53;;;-1.14;79.59
73600;BME280;61877;48.246;9.220;2023-03-01T04:28:04;94416.56;;;-1.10;79.41
73600;BME280;61877;48.246;9.220;2023-03-01T04:30:31;94416.28;;;-1.14;79.43
73600;BME280;61877;48.246;9.220;2023-03-01T04:32:56;94413.09;;;-1.16;79.27
73600;BME280;61877;48.246;9.220;2023-03-01T04:35:21;94418.13;;;-1.09;78.77
73600;BME280;61877;48.246;9.220;2023-03-01T04:37:47;94407.59;;;-1.09;79.22
73600;BME280;61877;48.246;9.220;2023-03-01T04:40:12;94407.59;;;-1.09;78.57
73600;BME280;61877;48.246;9.220;2023-03-01T04:42:38;94410.75;;;-1.07;78.74
73600;BME280;61877;48.246;9.220;2023-03-01T04:45:05;94404.72;;;-1.08;78.93
73600;BME280;61877;48.246;9.220;2023-03-01T04:47:32;94405.50;;;-1.07;78.81
73600;BME280;61877;48.246;9.220;2023-03-01T04:49:57;94403.41;;;-1.05;78.50
73600;BME280;61877;48.246;9.220;2023-03-01T04:52:22;94395.25;;;-1.04;79.11
73600;BME280;61877;48.246;9.220;2023-03-01T04:54:48;94396.31;;;-1.05;78.83
73600;BME280;61877;48.246;9.220;2023-03-01T04:57:13;94397.09;;;-0.99;78.62
73600;BME280;61877;48.246;9.220;2023-03-01T04:59:38;94396.34;;;-1.00;78.51
73600;BME280;61877;48.246;9.220;2023-03-01T05:02:04;94407.13;;;-1.01;78.48
73600;BME280;61877;48.246;9.220;2023-03-01T05:04:30;94406.31;;;-1.02;78.42
73600;BME280;61877;48.246;9.220;2023-03-01T05:06:56;94403.16;;;-0.99;78.43
73600;BME280;61877;48.246;9.220;2023-03-01T05:09:21;94409.22;;;-0.98;78.24
73600;BME280;61877;48.246;9.220;2023-03-01T05:11:47;94406.06;;;-1.00;78.44
73600;BME280;61877;48.246;9.220;2023-03-01T05:14:12;94395.00;;;-0.97;77.98
73600;BME280;61877;48.246;9.220;2023-03-01T05:16:38;94395.81;;;-0.97;78.46
73600;BME280;61877;48.246;9.220;2023-03-01T05:19:03;94393.41;;;-1.03;78.83
73600;BME280;61877;48.246;9.220;2023-03-01T05:21:30;94393.97;;;-1.01;78.45
73600;BME280;61877;48.246;9.220;2023-03-01T05:23:56;94395.00;;;-1.02;78.38
73600;BME280;61877;48.246;9.220;2023-03-01T05:26:21;94390.78;;;-1.03;78.63
73600;BME280;61877;48.246;9.220;2023-03-01T05:28:47;94390.78;;;-1.03;78.43
73600;BME280;61877;48.246;9.220;2023-03-01T05:31:12;94390.53;;;-0.97;78.72
73600;BME280;61877;48.246;9.220;2023-03-01T05:33:38;94389.47;;;-0.96;78.30
73600;BME280;61877;48.246;9.220;2023-03-01T05:36:05;94385.00;;;-1.00;77.95
73600;BME280;61877;48.246;9.220;2023-03-01T05:38:32;94383.44;;;-1.01;78.53
73600;BME280;61877;48.246;9.220;2023-03-01T05:40:57;94384.22;;;-0.96;77.95
73600;BME280;61877;48.246;9.220;2023-03-01T05:43:22;94386.06;;;-0.96;77.92
73600;BME280;61877;48.246;9.220;2023-03-01T05:45:48;94392.38;;;-0.97;78.01
73600;BME280;61877;48.246;9.220;2023-03-01T05:48:13;94382.91;;;-0.98;78.21
73600;BME280;61877;48.246;9.220;2023-03-01T05:50:40;94386.06;;;-0.96;78.49
73600;BME280;61877;48.246;9.220;2023-03-01T05:53:09;94387.91;;;-0.97;78.23
73600;BME280;61877;48.246;9.220;2023-03-01T05:55:37;94386.09;;;-0.91;78.08
73600;BME280;61877;48.246;9.220;2023-03-01T05:58:04;94392.91;;;-0.95;78.19
73600;BME280;61877;48.246;9.220;2023-03-01T06:00:31;94393.47;;;-0.88;77.41
73600;BME280;61877;48.246;9.220;2023-03-01T06:02:58;94393.22;;;-0.87;77.51
73600;BME280;61877;48.246;9.220;2023-03-01T06:05:24;94396.38;;;-0.90;77.72
73600;BME280;61877;48.246;9.220;2023-03-01T06:07:50;94390.81;;;-0.93;77.85
73600;BME280;61877;48.246;9.220;2023-03-01T06:10:16;94389.75;;;-0.97;77.84
73600;BME280;61877;48.246;9.220;2023-03-01T06:12:43;94386.84;;;-0.96;77.73
73600;BME280;61877;48.246;9.220;2023-03-01T06:15:10;94385.53;;;-1.03;77.79
73600;BME280;61877;48.246;9.220;2023-03-01T06:17:37;94394.47;;;-0.99;77.87
73600;BME280;61877;48.246;9.220;2023-03-01T06:20:03;94399.78;;;-0.89;77.25
73600;BME280;61877;48.246;9.220;2023-03-01T06:22:28;94400.84;;;-0.90;77.56
73600;BME280;61877;48.246;9.220;2023-03-01T06:24:54;94395.56;;;-0.90;77.68
73600;BME280;61877;48.246;9.220;2023-03-01T06:27:19;94393.72;;;-0.95;78.17
73600;BME280;61877;48.246;9.220;2023-03-01T06:29:46;94404.53;;;-0.86;77.37
73600;BME280;61877;48.246;9.220;2023-03-01T06:32:11;94396.13;;;-0.83;77.29
73600;BME280;61877;48.246;9.220;2023-03-01T06:34:37;94389.25;;;-0.79;77.03
73600;BME280;61877;48.246;9.220;2023-03-01T06:37:02;94388.22;;;-0.78;76.77
73600;BME280;61877;48.246;9.220;2023-03-01T06:39:27;94394.00;;;-0.86;76.83
73600;BME280;61877;48.246;9.220;2023-03-01T06:41:53;94384.81;;;-0.79;76.69
73600;BME280;61877;48.246;9.220;2023-03-01T06:44:18;94386.91;;;-0.76;76.94
73600;BME280;61877;48.246;9.220;2023-03-01T06:46:45;94385.06;;;-0.75;77.14
73600;BME280;61877;48.246;9.220;2023-03-01T06:49:10;94389.28;;;-0.74;76.99
73600;BME280;61877;48.246;9.220;2023-03-01T06:51:36;94388.22;;;-0.78;77.31
73600;BME280;61877;48.246;9.220;2023-03-01T06:54:02;94391.41;;;-0.76;77.52
73600;BME280;61877;48.246;9.220;2023-03-01T06:56:27;94374.28;;;-0.74;76.93
73600;BME280;61877;48.246;9.220;2023-03-01T06:58:52;94384.81;;;-0.74;76.68
73600;BME280;61877;48.246;9.220;2023-03-01T07:01:18;94384.00;;;-0.74;77.55
73600;BME280;61877;48.246;9.220;2023-03-01T07:03:44;94385.63;;;-0.73;77.24
73600;BME280;61877;48.246;9.220;2023-03-01T07:06:10;94374.56;;;-0.65;76.98
73600;BME280;61877;48.246;9.220;2023-03-01T07:08:35;94381.41;;;-0.64;76.42
73600;BME280;61877;48.246;9.220;2023-03-01T07:11:01;94381.41;;;-0.59;76.07
73600;BME280;61877;48.246;9.220;2023-03-01T07:13:26;94379.59;;;-0.54;76.47
73600;BME280;61877;48.246;9.220;2023-03-01T07:15:51;94369.84;;;-0.53;76.28
73600;BME280;61877;48.246;9.220;2023-03-01T07:18:17;94371.94;;;-0.55;75.64
73600;BME280;61877;48.246;9.220;2023-03-01T07:20:43;94371.44;;;-0.37;76.19
73600;BME280;61877;48.246;9.220;2023-03-01T07:23:09;94373.28;;;-0.38;75.25
73600;BME280;61877;48.246;9.220;2023-03-01T07:25:34;94377.25;;;-0.30;75.12
73600;BME280;61877;48.246;9.220;2023-03-01T07:28:00;94379.34;;;-0.37;75.12
73600;BME280;61877;48.246;9.220;2023-03-01T07:30:25;94374.59;;;-0.35;74.93
73600;BME280;61877;48.246;9.220;2023-03-01T07:32:51;94370.38;;;-0.21;74.45
73600;BME280;61877;48.246;9.220;2023-03-01T07:35:16;94371.19;;;-0.16;74.09
73600;BME280;61877;48.246;9.220;2023-03-01T07:37:43;94367.75;;;-0.06;74.68
73600;BME280;61877;48.246;9.220;2023-03-01T07:40:10;94367.47;;;-0.20;73.85
73600;BME280;61877;48.246;9.220;2023-03-01T07:42:36;94366.19;;;-0.02;74.35
73600;BME280;61877;48.246;9.220;2023-03-01T07:45:01;94364.06;;;-0.10;73.67
73600;BME280;61877;48.246;9.220;2023-03-01T07:47:27;94363.00;;;-0.09;73.75
73600;BME280;61877;48.246;9.220;2023-03-01T07:49:52;94353.75;;;-0.07;73.81
73600;BME280;61877;48.246;9.220;2023-03-01T07:52:17;94355.38;;;-0.06;73.25
73600;BME280;61877;48.246;9.220;2023-03-01T07:54:44;94354.03;;;0.02;74.14
73600;BME280;61877;48.246;9.220;2023-03-01T07:57:10;94357.72;;;-0.09;73.88
73600;BME280;61877;48.246;9.220;2023-03-01T07:59:35;94357.72;;;-0.04;73.80
73600;BME280;61877;48.246;9.220;2023-03-01T08:02:06;94351.41;;;-0.18;73.29
73600;BME280;61877;48.246;9.220;2023-03-01T08:04:31;94344.81;;;-0.16;73.24
73600;BME280;61877;48.246;9.220;2023-03-01T08:06:57;94345.56;;;0.05;72.83
73600;BME280;61877;48.246;9.220;2023-03-01T08:12:28;94349.00;;;0.16;71.73
73600;BME280;61877;48.246;9.220;2023-03-01T08:18:04;94351.41;;;-0.13;72.70
73600;BME280;61877;48.246;9.220;2023-03-01T08:20:33;94348.72;;;0.17;72.54
73600;BME280;61877;48.246;9.220;2023-03-01T08:23:31;94336.34;;;0.13;72.36
73600;BME280;61877;48.246;9.220;2023-03-01T08:26:20;94346.06;;;0.37;72.11
73600;BME280;61877;48.246;9.220;2023-03-01T08:28:48;94345.53;;;0.35;72.21
73600;BME280;61877;48.246;9.220;2023-03-01T08:31:17;94342.31;;;0.48;71.92
73600;BME280;61877;48.246;9.220;2023-03-01T08:37:01;94340.22;;;0.45;71.30
73600;BME280;61877;48.246;9.220;2023-03-01T08:39:28;94350.00;;;0.55;71.09
73600;BME280;61877;48.246;9.220;2023-03-01T08:41:57;94342.31;;;0.53;70.95
73600;BME280;61877;48.246;9.220;2023-03-01T08:50:31;94337.81;;;0.64;69.26
73600;BME280;61877;48.246;9.220;2023-03-01T08:59:01;94329.56;;;1.29;68.28
73600;BME280;61877;48.246;9.220;2023-03-01T09:01:35;94321.31;;;1.41;68.01
73600;BME280;61877;48.246;9.220;2023-03-01T09:04:22;94320.13;;;1.57;66.33
73600;BME280;61877;48.246;9.220;2023-03-01T09:07:34;94324.72;;;1.41;66.53
73600;BME280;61877;48.246;9.220;2023-03-01T09:16:39;94334.50;;;1.46;66.16
73600;BME280;61877;48.246;9.220;2023-03-01T09:19:12;94332.59;;;1.51;66.46
73600;BME280;61877;48.246;9.220;2023-03-01T09:22:10;94331.38;;;1.33;66.69
73600;BME280;61877;48.246;9.220;2023-03-01T09:27:47;94321.56;;;1.44;65.21
73600;BME280;61877;48.246;9.220;2023-03-01T09:30:16;94320.22;;;1.42;66.28
73600;BME280;61877;48.246;9.220;2023-03-01T09:33:53;94324.16;;;1.49;67.71
73600;BME280;61877;48.246;9.220;2023-03-01T09:38:20;94321.72;;;1.53;66.27
73600;BME280;61877;48.246;9.220;2023-03-01T09:40:52;94318.28;;;1.57;65.51
73600;BME280;61877;48.246;9.220;2023-03-01T09:46:23;94313.38;;;1.74;66.00
73600;BME280;61877;48.246;9.220;2023-03-01T09:49:25;94307.63;;;1.96;65.90
73600;BME280;61877;48.246;9.220;2023-03-01T10:10:08;94311.66;;;2.69;63.59
73600;BME280;61877;48.246;9.220;2023-03-01T10:20:20;94308.00;;;2.65;63.26
73600;BME280;61877;48.246;9.220;2023-03-01T10:22:49;94308.88;;;2.79;63.07
73600;BME280;61877;48.246;9.220;2023-03-01T10:25:15;94301.69;;;2.85;62.03
73600;BME280;61877;48.246;9.220;2023-03-01T10:27:46;94304.78;;;2.68;62.00
73600;BME280;61877;48.246;9.220;2023-03-01T10:30:19;94301.56;;;2.95;61.66
73600;BME280;61877;48.246;9.220;2023-03-01T10:32:51;94304.78;;;3.10;62.10
73600;BME280;61877;48.246;9.220;2023-03-01T10:35:26;94305.41;;;3.02;62.68
73600;BME280;61877;48.246;9.220;2023-03-01T10:38:03;94293.16;;;2.64;62.88
73600;BME280;61877;48.246;9.220;2023-03-01T10:40:29;94288.91;;;2.44;63.41
73600;BME280;61877;48.246;9.220;2023-03-01T10:42:57;94284.00;;;2.33;63.05
73600;BME280;61877;48.246;9.220;2023-03-01T10:45:34;94283.88;;;2.67;63.22
73600;BME280;61877;48.246;9.220;2023-03-01T10:48:05;94284.97;;;3.26;62.91
73600;BME280;61877;48.246;9.220;2023-03-01T10:50:32;94283.44;;;3.57;60.48
73600;BME280;61877;48.246;9.220;2023-03-01T10:52:59;94280.41;;;3.64;60.34
73600;BME280;61877;48.246;9.220;2023-03-01T10:55:30;94276.50;;;3.24;60.95
73600;BME280;61877;48.246;9.220;2023-03-01T11:00:28;94273.56;;;3.76;58.63
73600;BME280;61877;48.246;9.220;2023-03-01T11:03:10;94270.22;;;3.71;59.78
73600;BME280;61877;48.246;9.220;2023-03-01T11:05:50;94273.03;;;3.61;59.43
73600;BME280;61877;48.246;9.220;2023-03-01T11:08:29;94262.72;;;3.04;62.18
73600;BME280;61877;48.246;9.220;2023-03-01T11:11:05;94263.22;;;3.06;62.93
73600;BME280;61877;48.246;9.220;2023-03-01T11:13:31;94266.03;;;2.96;61.10
73600;BME280;61877;48.246;9.220;2023-03-01T11:16:00;94265.75;;;3.16;62.22
73600;BME280;61877;48.246;9.220;2023-03-01T11:18:55;94269.03;;;2.47;62.81
73600;BME280;61877;48.246;9.220;2023-03-01T11:21:24;94254.97;;;2.70;63.81
73600;BME280;61877;48.246;9.220;2023-03-01T11:24:00;94258.16;;;3.09;62.36
73600;BME280;61877;48.246;9.220;2023-03-01T11:26:33;94250.41;;;2.94;61.83
73600;BME280;61877;48.246;9.220;2023-03-01T11:29:06;94254.84;;;2.80;61.52
73600;BME280;61877;48.246;9.220;2023-03-01T11:31:39;94256.19;;;2.78;61.51
73600;BME280;61877;48.246;9.220;2023-03-01T11:34:14;94254.19;;;2.70;62.40
73600;BME280;61877;48.246;9.220;2023-03-01T11:36:53;94251.06;;;2.86;61.63
73600;BME280;61877;48.246;9.220;2023-03-01T11:39:33;94244.63;;;3.11;60.64
73600;BME280;61877;48.246;9.220;2023-03-01T11:42:06;94239.47;;;4.43;57.23
73600;BME280;61877;48.246;9.220;2023-03-01T11:44:38;94239.88;;;4.23;57.47
73600;BME280;61877;48.246;9.220;2023-03-01T11:47:33;94225.47;;;5.85;55.11
73600;BME280;61877;48.246;9.220;2023-03-01T11:50:17;94221.75;;;5.72;52.96
73600;BME280;61877;48.246;9.220;2023-03-01T11:52:56;94231.13;;;5.70;52.72
73600;BME280;61877;48.246;9.220;2023-03-01T11:55:58;94224.19;;;6.35;51.42
73600;BME280;61877;48.246;9.220;2023-03-01T11:58:43;94224.44;;;6.25;51.46
73600;BME280;61877;48.246;9.220;2023-03-01T12:01:27;94206.41;;;6.70;50.95
73600;BME280;61877;48.246;9.220;2023-03-01T12:07:02;94196.78;;;7.50;48.65
73600;BME280;61877;48.246;9.220;2023-03-01T12:12:51;94204.22;;;6.80;50.23
73600;BME280;61877;48.246;9.220;2023-03-01T12:15:37;94189.69;;;7.12;48.76
73600;BME280;61877;48.246;9.220;2023-03-01T12:21:09;94182.00;;;9.00;45.20
73600;BME280;61877;48.246;9.220;2023-03-01T12:26:36;94166.78;;;9.74;42.83
73600;BME280;61877;48.246;9.220;2023-03-01T12:29:28;94156.47;;;10.66;41.91
73600;BME280;61877;48.246;9.220;2023-03-01T12:38:10;94137.84;;;12.47;37.21
73600;BME280;61877;48.246;9.220;2023-03-01T12:43:56;94114.72;;;12.77;36.06
73600;BME280;61877;48.246;9.220;2023-03-01T12:46:59;94113.91;;;14.45;33.67
73600;BME280;61877;48.246;9.220;2023-03-01T12:49:40;94112.22;;;14.59;32.29
73600;BME280;61877;48.246;9.220;2023-03-01T12:52:11;94109.81;;;14.09;34.07
73600;BME280;61877;48.246;9.220;2023-03-01T12:54:40;94104.47;;;12.67;35.31
73600;BME280;61877;48.246;9.220;2023-03-01T12:57:14;94105.50;;;13.85;34.40
73600;BME280;61877;48.246;9.220;2023-03-01T12:59:46;94110.28;;;13.73;33.41
73600;BME280;61877;48.246;9.220;2023-03-01T13:02:22;94097.28;;;14.20;34.04
73600;BME280;61877;48.246;9.220;2023-03-01T13:05:19;94092.53;;;15.63;30.63
73600;BME280;61877;48.246;9.220;2023-03-01T13:07:58;94092.81;;;14.99;31.13
73600;BME280;61877;48.246;9.220;2023-03-01T13:10:41;94094.47;;;15.36;32.23
73600;BME280;61877;48.246;9.220;2023-03-01T13:13:14;94084.97;;;14.68;31.21
73600;BME280;61877;48.246;9.220;2023-03-01T13:15:45;94086.03;;;15.12;30.98
73600;BME280;61877;48.246;9.220;2023-03-01T13:18:34;94078.66;;;14.83;32.80
73600;BME280;61877;48.246;9.220;2023-03-01T13:21:02;94081.56;;;16.22;29.57
73600;BME280;61877;48.246;9.220;2023-03-01T13:23:35;94076.81;;;16.12;30.67
73600;BME280;61877;48.246;9.220;2023-03-01T13:26:13;94067.75;;;16.78;28.65
73600;BME280;61877;48.246;9.220;2023-03-01T13:28:59;94081.44;;;17.60;27.66
73600;BME280;61877;48.246;9.220;2023-03-01T13:31:59;94074.28;;;18.14;26.56
73600;BME280;61877;48.246;9.220;2023-03-01T13:34:57;94080.94;;;19.00;25.21
73600;BME280;61877;48.246;9.220;2023-03-01T13:37:28;94075.53;;;18.79;25.96
73600;BME280;61877;48.246;9.220;2023-03-01T13:39:55;94070.88;;;16.80;27.88
73600;BME280;61877;48.246;9.220;2023-03-01T13:42:43;94080.56;;;18.95;27.14
73600;BME280;61877;48.246;9.220;2023-03-01T13:45:35;94072.00;;;19.10;25.43
73600;BME280;61877;48.246;9.220;2023-03-01T13:48:11;94074.03;;;16.05;29.10
73600;BME280;61877;48.246;9.220;2023-03-01T13:50:47;94072.53;;;16.95;29.27
73600;BME280;61877;48.246;9.220;2023-03-01T13:53:17;94065.63;;;17.01;30.62
73600;BME280;61877;48.246;9.220;2023-03-01T13:55:47;94078.19;;;16.72;28.01
73600;BME280;61877;48.246;9.220;2023-03-01T13:58:22;94075.69;;;16.13;29.92
73600;BME280;61877;48.246;9.220;2023-03-01T14:00:56;94075.19;;;17.46;28.18
73600;BME280;61877;48.246;9.220;2023-03-01T14:03:22;94090.19;;;16.75;28.89
73600;BME280;61877;48.246;9.220;2023-03-01T14:06:03;94090.63;;;17.42;28.02
73600;BME280;61877;48.246;9.220;2023-03-01T14:08:30;94086.19;;;15.85;30.46
73600;BME280;61877;48.246;9.220;2023-03-01T14:11:21;94099.81;;;15.03;31.10
73600;BME280;61877;48.246;9.220;2023-03-01T14:14:19;94096.47;;;14.39;32.09
73600;BME280;61877;48.246;9.220;2023-03-01T14:16:56;94101.06;;;14.15;32.52
73600;BME280;61877;48.246;9.220;2023-03-01T14:19:27;94096.94;;;16.11;30.88
73600;BME280;61877;48.246;9.220;2023-03-01T14:22:06;94105.34;;;13.97;33.06
73600;BME280;61877;48.246;9.220;2023-03-01T14:24:44;94109.88;;;14.12;32.67
73600;BME280;61877;48.246;9.220;2023-03-01T14:27:12;94103.41;;;12.87;34.55
73600;BME280;61877;48.246;9.220;2023-03-01T14:29:40;94111.28;;;12.30;36.30
73600;BME280;61877;48.246;9.220;2023-03-01T14:32:17;94109.56;;;11.11;38.41
73600;BME280;61877;48.246;9.220;2023-03-01T14:34:48;94109.38;;;10.68;40.38
73600;BME280;61877;48.246;9.220;2023-03-01T14:37:22;94107.19;;;10.34;40.43
73600;BME280;61877;48.246;9.220;2023-03-01T14:39:48;94104.41;;;11.18;39.59
73600;BME280;61877;48.246;9.220;2023-03-01T14:42:24;94103.91;;;11.28;39.48
73600;BME280;61877;48.246;9.220;2023-03-01T14:44:53;94107.25;;;10.86;38.79